sensor_id;sensor_type;location;lat;lon;timestamp;P1;durP1;ratioP1;P2;durP2;ratioP2
22223;SDS011;11281;52.194;21.006;2023-03-29T00:00:05;4.40;;;2.97;;
22223;SDS011;11281;52.194;21.006;2023-03-29T00:04:10;6.22;;;3.53;;
22223;SDS011;11281;52.194;21.006;2023-03-29T00:08:13;4.90;;;3.35;;
22223;SDS011;11281;52.194;21.006;2023-03-29T00:12:18;8.65;;;3.95;;
22223;SDS011;11281;52.194;21.006;2023-03-29T00:16:21;4.30;;;3.55;;
22223;SDS011;11281;52.194;21.006;2023-03-29T00:20:23;5.03;;;3.60;;
22223;SDS011;11281;52.194;21.006;2023-03-29T00:24:25;6.25;;;3.83;;
22223;SDS011;11281;52.194;21.006;2023-03-29T00:28:26;5.35;;;3.85;;
22223;SDS011;11281;52.194;21.006;2023-03-29T00:32:29;6.20;;;3.80;;
22223;SDS011;11281;52.194;21.006;2023-03-29T00:36:30;7.97;;;3.60;;
22223;SDS011;11281;52.194;21.006;2023-03-29T00:40:33;7.35;;;4.03;;
22223;SDS011;11281;52.194;21.006;2023-03-29T00:49:06;4.45;;;3.30;;
22223;SDS011;11281;52.194;21.006;2023-03-29T00:53:21;6.43;;;3.03;;
22223;SDS011;11281;52.194;21.006;2023-03-29T00:57:29;8.10;;;3.70;;
22223;SDS011;11281;52.194;21.006;2023-03-29T01:05:58;4.15;;;2.97;;
22223;SDS011;11281;52.194;21.006;2023-03-29T01:10:09;8.98;;;4.15;;
22223;SDS011;11281;52.194;21.006;2023-03-29T01:14:18;5.45;;;3.65;;
22223;SDS011;11281;52.194;21.006;2023-03-29T01:18:27;8.52;;;3.63;;
22223;SDS011;11281;52.194;21.006;2023-03-29T01:22:42;5.28;;;3.65;;
22223;SDS011;11281;52.194;21.006;2023-03-29T01:31:33;7.25;;;3.63;;
22223;SDS011;11281;52.194;21.006;2023-03-29T01:35:42;5.68;;;3.15;;
22223;SDS011;11281;52.194;21.006;2023-03-29T01:39:52;6.10;;;3.40;;
22223;SDS011;11281;52.194;21.006;2023-03-29T01:43:58;11.63;;;5.20;;
22223;SDS011;11281;52.194;21.006;2023-03-29T01:52:32;6.03;;;3.38;;
22223;SDS011;11281;52.194;21.006;2023-03-29T01:56:40;9.05;;;5.22;;
22223;SDS011;11281;52.194;21.006;2023-03-29T02:00:44;10.23;;;4.00;;
22223;SDS011;11281;52.194;21.006;2023-03-29T02:04:47;10.50;;;5.05;;
22223;SDS011;11281;52.194;21.006;2023-03-29T02:08:53;14.50;;;5.97;;
22223;SDS011;11281;52.194;21.006;2023-03-29T02:12:55;10.32;;;6.18;;
22223;SDS011;11281;52.194;21.006;2023-03-29T02:17:11;16.67;;;6.82;;
22223;SDS011;11281;52.194;21.006;2023-03-29T02:21:19;14.65;;;6.03;;
22223;SDS011;11281;52.194;21.006;2023-03-29T02:25:34;13.20;;;5.43;;
22223;SDS011;11281;52.194;21.006;2023-03-29T02:29:38;15.48;;;5.43;;
22223;SDS011;11281;52.194;21.006;2023-03-29T02:33:51;7.07;;;3.45;;
22223;SDS011;11281;52.194;21.006;2023-03-29T02:38:19;9.10;;;5.00;;
22223;SDS011;11281;52.194;21.006;2023-03-29T02:42:25;6.40;;;4.03;;
22223;SDS011;11281;52.194;21.006;2023-03-29T02:46:28;12.85;;;4.10;;
22223;SDS011;11281;52.194;21.006;2023-03-29T02:50:33;6.68;;;3.88;;
22223;SDS011;11281;52.194;21.006;2023-03-29T02:54:38;10.77;;;4.57;;
22223;SDS011;11281;52.194;21.006;2023-03-29T02:58:43;6.70;;;4.05;;
22223;SDS011;11281;52.194;21.006;2023-03-29T03:02:45;4.93;;;3.65;;
22223;SDS011;11281;52.194;21.006;2023-03-29T03:06:48;6.22;;;3.42;;
22223;SDS011;11281;52.194;21.006;2023-03-29T03:10:50;6.10;;;3.90;;
22223;SDS011;11281;52.194;21.006;2023-03-29T03:14:52;6.25;;;3.30;;
22223;SDS011;11281;52.194;21.006;2023-03-29T03:18:54;4.97;;;3.33;;
22223;SDS011;11281;52.194;21.006;2023-03-29T03:22:56;6.20;;;4.07;;
22223;SDS011;11281;52.194;21.006;2023-03-29T03:26:58;7.75;;;4.10;;
22223;SDS011;11281;52.194;21.006;2023-03-29T03:31:00;7.07;;;3.88;;
22223;SDS011;11281;52.194;21.006;2023-03-29T03:35:02;6.60;;;3.90;;
22223;SDS011;11281;52.194;21.006;2023-03-29T03:39:05;6.57;;;3.72;;
22223;SDS011;11281;52.194;21.006;2023-03-29T03:43:07;5.70;;;3.88;;
22223;SDS011;11281;52.194;21.006;2023-03-29T03:47:08;6.30;;;3.78;;
22223;SDS011;11281;52.194;21.006;2023-03-29T03:51:11;4.70;;;3.50;;
22223;SDS011;11281;52.194;21.006;2023-03-29T03:55:14;5.78;;;3.42;;
22223;SDS011;11281;52.194;21.006;2023-03-29T03:59:16;8.48;;;3.50;;
22223;SDS011;11281;52.194;21.006;2023-03-29T04:03:17;3.80;;;2.97;;
22223;SDS011;11281;52.194;21.006;2023-03-29T04:07:19;5.20;;;4.03;;
22223;SDS011;11281;52.194;21.006;2023-03-29T04:11:21;3.67;;;3.22;;
22223;SDS011;11281;52.194;21.006;2023-03-29T04:15:22;8.68;;;3.63;;
22223;SDS011;11281;52.194;21.006;2023-03-29T04:19:24;6.85;;;3.80;;
22223;SDS011;11281;52.194;21.006;2023-03-29T04:23:26;7.00;;;3.17;;
22223;SDS011;11281;52.194;21.006;2023-03-29T04:27:29;17.05;;;7.57;;
22223;SDS011;11281;52.194;21.006;2023-03-29T04:31:31;39.35;;;17.77;;
22223;SDS011;11281;52.194;21.006;2023-03-29T04:35:32;40.33;;;19.00;;
22223;SDS011;11281;52.194;21.006;2023-03-29T04:39:35;16.52;;;9.93;;
22223;SDS011;11281;52.194;21.006;2023-03-29T04:43:38;15.85;;;9.05;;
22223;SDS011;11281;52.194;21.006;2023-03-29T04:47:41;8.70;;;5.85;;
22223;SDS011;11281;52.194;21.006;2023-03-29T04:51:43;6.00;;;4.75;;
22223;SDS011;11281;52.194;21.006;2023-03-29T04:55:45;23.08;;;10.05;;
22223;SDS011;11281;52.194;21.006;2023-03-29T04:59:47;25.65;;;12.20;;
22223;SDS011;11281;52.194;21.006;2023-03-29T05:03:49;23.63;;;12.63;;
22223;SDS011;11281;52.194;21.006;2023-03-29T05:07:52;16.13;;;9.57;;
22223;SDS011;11281;52.194;21.006;2023-03-29T05:11:54;11.90;;;6.95;;
22223;SDS011;11281;52.194;21.006;2023-03-29T05:15:56;13.25;;;8.50;;
22223;SDS011;11281;52.194;21.006;2023-03-29T05:19:57;7.70;;;4.07;;
22223;SDS011;11281;52.194;21.006;2023-03-29T05:23:59;12.60;;;6.90;;
22223;SDS011;11281;52.194;21.006;2023-03-29T05:28:01;10.98;;;5.75;;
22223;SDS011;11281;52.194;21.006;2023-03-29T05:32:03;13.35;;;6.60;;
22223;SDS011;11281;52.194;21.006;2023-03-29T05:36:06;16.10;;;7.18;;
22223;SDS011;11281;52.194;21.006;2023-03-29T05:40:15;13.38;;;6.28;;
22223;SDS011;11281;52.194;21.006;2023-03-29T05:44:17;15.38;;;7.03;;
22223;SDS011;11281;52.194;21.006;2023-03-29T05:48:20;13.63;;;5.88;;
22223;SDS011;11281;52.194;21.006;2023-03-29T05:52:23;10.88;;;6.10;;
22223;SDS011;11281;52.194;21.006;2023-03-29T05:56:24;11.77;;;5.72;;
22223;SDS011;11281;52.194;21.006;2023-03-29T06:00:26;15.98;;;7.13;;
22223;SDS011;11281;52.194;21.006;2023-03-29T06:04:29;18.83;;;7.72;;
22223;SDS011;11281;52.194;21.006;2023-03-29T06:08:33;6.60;;;4.05;;
22223;SDS011;11281;52.194;21.006;2023-03-29T06:12:34;11.93;;;5.45;;
22223;SDS011;11281;52.194;21.006;2023-03-29T06:16:36;6.60;;;3.83;;
22223;SDS011;11281;52.194;21.006;2023-03-29T06:20:38;6.22;;;3.78;;
22223;SDS011;11281;52.194;21.006;2023-03-29T06:24:40;3.72;;;2.83;;
22223;SDS011;11281;52.194;21.006;2023-03-29T06:28:42;8.93;;;3.72;;
22223;SDS011;11281;52.194;21.006;2023-03-29T06:32:43;4.30;;;3.40;;
22223;SDS011;11281;52.194;21.006;2023-03-29T06:36:46;7.95;;;3.65;;
22223;SDS011;11281;52.194;21.006;2023-03-29T06:40:48;4.20;;;3.30;;
22223;SDS011;11281;52.194;21.006;2023-03-29T06:44:49;7.07;;;5.68;;
22223;SDS011;11281;52.194;21.006;2023-03-29T06:48:52;9.20;;;3.85;;
22223;SDS011;11281;52.194;21.006;2023-03-29T06:52:54;9.15;;;3.97;;
22223;SDS011;11281;52.194;21.006;2023-03-29T06:56:56;8.55;;;5.50;;
22223;SDS011;11281;52.194;21.006;2023-03-29T07:01:00;4.35;;;3.72;;
22223;SDS011;11281;52.194;21.006;2023-03-29T07:05:03;6.30;;;3.97;;
22223;SDS011;11281;52.194;21.006;2023-03-29T07:09:11;8.60;;;3.63;;
22223;SDS011;11281;52.194;21.006;2023-03-29T07:13:12;5.15;;;3.28;;
22223;SDS011;11281;52.194;21.006;2023-03-29T07:17:15;4.97;;;3.38;;
22223;SDS011;11281;52.194;21.006;2023-03-29T07:21:17;5.35;;;3.70;;
22223;SDS011;11281;52.194;21.006;2023-03-29T07:25:20;7.22;;;4.43;;
22223;SDS011;11281;52.194;21.006;2023-03-29T07:29:25;4.50;;;2.90;;
22223;SDS011;11281;52.194;21.006;2023-03-29T07:33:29;6.20;;;3.70;;
22223;SDS011;11281;52.194;21.006;2023-03-29T07:37:31;8.27;;;4.38;;
22223;SDS011;11281;52.194;21.006;2023-03-29T07:41:36;5.88;;;3.50;;
22223;SDS011;11281;52.194;21.006;2023-03-29T07:45:37;4.18;;;2.70;;
22223;SDS011;11281;52.194;21.006;2023-03-29T07:49:41;6.28;;;3.28;;
22223;SDS011;11281;52.194;21.006;2023-03-29T07:53:43;8.70;;;4.15;;
22223;SDS011;11281;52.194;21.006;2023-03-29T07:57:44;6.35;;;3.97;;
22223;SDS011;11281;52.194;21.006;2023-03-29T08:01:46;14.60;;;6.28;;
22223;SDS011;11281;52.194;21.006;2023-03-29T08:05:48;7.30;;;3.42;;
22223;SDS011;11281;52.194;21.006;2023-03-29T08:09:50;10.40;;;3.95;;
22223;SDS011;11281;52.194;21.006;2023-03-29T08:13:52;9.88;;;2.88;;
22223;SDS011;11281;52.194;21.006;2023-03-29T08:17:54;9.77;;;4.90;;
22223;SDS011;11281;52.194;21.006;2023-03-29T08:21:56;11.02;;;7.28;;
22223;SDS011;11281;52.194;21.006;2023-03-29T08:25:58;8.18;;;5.55;;
22223;SDS011;11281;52.194;21.006;2023-03-29T08:30:00;5.57;;;3.47;;
22223;SDS011;11281;52.194;21.006;2023-03-29T08:34:02;7.40;;;3.58;;
22223;SDS011;11281;52.194;21.006;2023-03-29T08:38:03;3.85;;;2.50;;
22223;SDS011;11281;52.194;21.006;2023-03-29T08:51:32;2.45;;;2.28;;
22223;SDS011;11281;52.194;21.006;2023-03-29T08:55:50;3.05;;;2.00;;
22223;SDS011;11281;52.194;21.006;2023-03-29T08:59:57;6.80;;;3.70;;
22223;SDS011;11281;52.194;21.006;2023-03-29T09:08:11;4.13;;;2.63;;
22223;SDS011;11281;52.194;21.006;2023-03-29T09:21:43;23.17;;;5.75;;
22223;SDS011;11281;52.194;21.006;2023-03-29T09:26:34;8.77;;;3.85;;
22223;SDS011;11281;52.194;21.006;2023-03-29T09:30:22;13.15;;;4.35;;
22223;SDS011;11281;52.194;21.006;2023-03-29T09:34:33;10.07;;;3.95;;
22223;SDS011;11281;52.194;21.006;2023-03-29T09:38:47;4.07;;;2.63;;
22223;SDS011;11281;52.194;21.006;2023-03-29T09:42:51;1.58;;;1.48;;
22223;SDS011;11281;52.194;21.006;2023-03-29T09:46:55;3.22;;;1.85;;
22223;SDS011;11281;52.194;21.006;2023-03-29T09:51:06;5.10;;;2.90;;
22223;SDS011;11281;52.194;21.006;2023-03-29T09:55:12;3.95;;;2.33;;
22223;SDS011;11281;52.194;21.006;2023-03-29T09:59:16;3.22;;;2.03;;
22223;SDS011;11281;52.194;21.006;2023-03-29T10:03:18;3.25;;;2.28;;
22223;SDS011;11281;52.194;21.006;2023-03-29T10:07:22;2.45;;;1.65;;
22223;SDS011;11281;52.194;21.006;2023-03-29T10:11:36;2.80;;;1.98;;
22223;SDS011;11281;52.194;21.006;2023-03-29T10:15:39;2.47;;;1.90;;
22223;SDS011;11281;52.194;21.006;2023-03-29T10:19:51;6.68;;;4.07;;
22223;SDS011;11281;52.194;21.006;2023-03-29T10:23:57;4.40;;;2.38;;
22223;SDS011;11281;52.194;21.006;2023-03-29T10:28:03;6.72;;;3.60;;
22223;SDS011;11281;52.194;21.006;2023-03-29T10:36:24;5.05;;;2.00;;
22223;SDS011;11281;52.194;21.006;2023-03-29T10:40:28;4.55;;;2.90;;
22223;SDS011;11281;52.194;21.006;2023-03-29T10:44:34;3.20;;;2.28;;
22223;SDS011;11281;52.194;21.006;2023-03-29T10:48:36;3.03;;;2.35;;
22223;SDS011;11281;52.194;21.006;2023-03-29T10:52:49;8.13;;;2.92;;
22223;SDS011;11281;52.194;21.006;2023-03-29T10:56:54;3.80;;;1.92;;
22223;SDS011;11281;52.194;21.006;2023-03-29T11:00:58;3.05;;;2.15;;
22223;SDS011;11281;52.194;21.006;2023-03-29T11:18:27;2.55;;;2.35;;
22223;SDS011;11281;52.194;21.006;2023-03-29T11:22:47;3.05;;;1.90;;
22223;SDS011;11281;52.194;21.006;2023-03-29T11:31:36;2.40;;;2.05;;
22223;SDS011;11281;52.194;21.006;2023-03-29T11:36:15;2.63;;;2.40;;
22223;SDS011;11281;52.194;21.006;2023-03-29T11:44:50;2.65;;;2.25;;
22223;SDS011;11281;52.194;21.006;2023-03-29T11:53:21;4.57;;;2.78;;
22223;SDS011;11281;52.194;21.006;2023-03-29T12:01:37;5.20;;;3.30;;
22223;SDS011;11281;52.194;21.006;2023-03-29T12:05:56;5.03;;;2.65;;
22223;SDS011;11281;52.194;21.006;2023-03-29T12:10:18;8.68;;;5.40;;
22223;SDS011;11281;52.194;21.006;2023-03-29T12:14:35;11.02;;;5.47;;
22223;SDS011;11281;52.194;21.006;2023-03-29T12:18:57;10.15;;;4.25;;
22223;SDS011;11281;52.194;21.006;2023-03-29T12:23:06;4.85;;;2.70;;
22223;SDS011;11281;52.194;21.006;2023-03-29T12:27:21;4.95;;;2.35;;
22223;SDS011;11281;52.194;21.006;2023-03-29T12:40:15;3.85;;;2.55;;
22223;SDS011;11281;52.194;21.006;2023-03-29T12:44:20;3.85;;;2.25;;
22223;SDS011;11281;52.194;21.006;2023-03-29T12:48:24;4.22;;;2.90;;
22223;SDS011;11281;52.194;21.006;2023-03-29T12:52:30;4.20;;;2.45;;
22223;SDS011;11281;52.194;21.006;2023-03-29T12:56:39;3.90;;;2.70;;
22223;SDS011;11281;52.194;21.006;2023-03-29T13:01:02;5.18;;;3.00;;
22223;SDS011;11281;52.194;21.006;2023-03-29T13:05:27;3.00;;;2.45;;
22223;SDS011;11281;52.194;21.006;2023-03-29T13:14:02;2.77;;;2.37;;
22223;SDS011;11281;52.194;21.006;2023-03-29T13:18:21;4.25;;;3.38;;
22223;SDS011;11281;52.194;21.006;2023-03-29T13:23:05;3.80;;;2.42;;
22223;SDS011;11281;52.194;21.006;2023-03-29T13:32:30;4.75;;;2.65;;
22223;SDS011;11281;52.194;21.006;2023-03-29T13:36:52;6.20;;;3.67;;
22223;SDS011;11281;52.194;21.006;2023-03-29T13:41:11;7.80;;;3.92;;
22223;SDS011;11281;52.194;21.006;2023-03-29T13:45:38;6.32;;;2.97;;
22223;SDS011;11281;52.194;21.006;2023-03-29T13:49:41;6.43;;;3.25;;
22223;SDS011;11281;52.194;21.006;2023-03-29T13:53:52;7.30;;;2.90;;
22223;SDS011;11281;52.194;21.006;2023-03-29T13:58:02;5.22;;;2.70;;
22223;SDS011;11281;52.194;21.006;2023-03-29T14:02:21;5.28;;;2.67;;
22223;SDS011;11281;52.194;21.006;2023-03-29T14:06:46;7.60;;;2.90;;
22223;SDS011;11281;52.194;21.006;2023-03-29T14:10:53;2.75;;;2.47;;
22223;SDS011;11281;52.194;21.006;2023-03-29T14:14:56;2.92;;;2.05;;
22223;SDS011;11281;52.194;21.006;2023-03-29T14:19:02;7.22;;;2.85;;
22223;SDS011;11281;52.194;21.006;2023-03-29T14:23:11;7.75;;;4.13;;
22223;SDS011;11281;52.194;21.006;2023-03-29T14:31:34;3.65;;;2.80;;
22223;SDS011;11281;52.194;21.006;2023-03-29T14:35:38;4.97;;;2.78;;
22223;SDS011;11281;52.194;21.006;2023-03-29T14:39:41;3.38;;;2.70;;
22223;SDS011;11281;52.194;21.006;2023-03-29T14:43:42;2.90;;;2.28;;
22223;SDS011;11281;52.194;21.006;2023-03-29T14:47:45;4.72;;;2.47;;
22223;SDS011;11281;52.194;21.006;2023-03-29T14:51:47;3.20;;;2.42;;
22223;SDS011;11281;52.194;21.006;2023-03-29T14:55:51;4.13;;;2.58;;
22223;SDS011;11281;52.194;21.006;2023-03-29T14:59:54;4.35;;;2.33;;
22223;SDS011;11281;52.194;21.006;2023-03-29T15:04:02;3.47;;;2.60;;
22223;SDS011;11281;52.194;21.006;2023-03-29T15:08:07;3.47;;;2.65;;
22223;SDS011;11281;52.194;21.006;2023-03-29T15:12:15;4.35;;;3.13;;
22223;SDS011;11281;52.194;21.006;2023-03-29T15:16:20;5.57;;;3.15;;
22223;SDS011;11281;52.194;21.006;2023-03-29T15:20:26;2.63;;;2.38;;
22223;SDS011;11281;52.194;21.006;2023-03-29T15:24:32;5.40;;;3.22;;
22223;SDS011;11281;52.194;21.006;2023-03-29T15:28:34;4.80;;;3.05;;
22223;SDS011;11281;52.194;21.006;2023-03-29T15:33:06;6.45;;;3.40;;
22223;SDS011;11281;52.194;21.006;2023-03-29T15:37:13;8.15;;;4.20;;
22223;SDS011;11281;52.194;21.006;2023-03-29T15:41:14;4.53;;;2.95;;
22223;SDS011;11281;52.194;21.006;2023-03-29T15:45:16;6.75;;;2.65;;
22223;SDS011;11281;52.194;21.006;2023-03-29T15:49:19;3.55;;;2.30;;
22223;SDS011;11281;52.194;21.006;2023-03-29T15:53:20;5.78;;;3.42;;
22223;SDS011;11281;52.194;21.006;2023-03-29T15:57:23;3.70;;;2.30;;
22223;SDS011;11281;52.194;21.006;2023-03-29T16:05:36;4.40;;;2.47;;
22223;SDS011;11281;52.194;21.006;2023-03-29T16:09:37;2.58;;;2.13;;
22223;SDS011;11281;52.194;21.006;2023-03-29T16:13:39;6.50;;;3.90;;
22223;SDS011;11281;52.194;21.006;2023-03-29T16:17:40;6.65;;;2.80;;
22223;SDS011;11281;52.194;21.006;2023-03-29T16:21:42;3.03;;;2.72;;
22223;SDS011;11281;52.194;21.006;2023-03-29T16:25:44;5.13;;;2.15;;
22223;SDS011;11281;52.194;21.006;2023-03-29T16:29:46;4.80;;;2.55;;
22223;SDS011;11281;52.194;21.006;2023-03-29T16:33:48;3.60;;;2.42;;
22223;SDS011;11281;52.194;21.006;2023-03-29T16:37:49;3.13;;;2.83;;
22223;SDS011;11281;52.194;21.006;2023-03-29T16:41:51;3.08;;;2.33;;
22223;SDS011;11281;52.194;21.006;2023-03-29T16:45:53;3.78;;;2.85;;
22223;SDS011;11281;52.194;21.006;2023-03-29T16:49:55;2.42;;;2.22;;
22223;SDS011;11281;52.194;21.006;2023-03-29T16:53:57;2.92;;;2.40;;
22223;SDS011;11281;52.194;21.006;2023-03-29T16:58:00;2.10;;;2.00;;
22223;SDS011;11281;52.194;21.006;2023-03-29T17:02:03;2.45;;;1.83;;
22223;SDS011;11281;52.194;21.006;2023-03-29T17:06:05;3.58;;;2.05;;
22223;SDS011;11281;52.194;21.006;2023-03-29T17:10:09;2.28;;;1.92;;
22223;SDS011;11281;52.194;21.006;2023-03-29T17:14:12;1.80;;;1.70;;
22223;SDS011;11281;52.194;21.006;2023-03-29T17:18:14;2.88;;;1.70;;
22223;SDS011;11281;52.194;21.006;2023-03-29T17:22:15;3.10;;;2.00;;
22223;SDS011;11281;52.194;21.006;2023-03-29T17:26:17;1.98;;;1.73;;
22223;SDS011;11281;52.194;21.006;2023-03-29T17:30:18;2.67;;;2.22;;
22223;SDS011;11281;52.194;21.006;2023-03-29T17:34:20;2.97;;;2.00;;
22223;SDS011;11281;52.194;21.006;2023-03-29T17:38:22;4.85;;;2.25;;
22223;SDS011;11281;52.194;21.006;2023-03-29T17:42:24;2.25;;;2.00;;
22223;SDS011;11281;52.194;21.006;2023-03-29T17:46:26;2.25;;;1.88;;
22223;SDS011;11281;52.194;21.006;2023-03-29T17:50:27;2.35;;;1.70;;
22223;SDS011;11281;52.194;21.006;2023-03-29T17:54:30;7.22;;;2.67;;
22223;SDS011;11281;52.194;21.006;2023-03-29T17:58:32;2.88;;;2.00;;
22223;SDS011;11281;52.194;21.006;2023-03-29T18:02:33;7.55;;;2.75;;
22223;SDS011;11281;52.194;21.006;2023-03-29T18:06:35;4.93;;;2.55;;
22223;SDS011;11281;52.194;21.006;2023-03-29T18:10:38;5.38;;;2.67;;
22223;SDS011;11281;52.194;21.006;2023-03-29T18:14:39;7.97;;;2.70;;
22223;SDS011;11281;52.194;21.006;2023-03-29T18:18:41;4.65;;;2.90;;
22223;SDS011;11281;52.194;21.006;2023-03-29T18:22:43;5.85;;;3.17;;
22223;SDS011;11281;52.194;21.006;2023-03-29T18:26:45;7.95;;;3.30;;
22223;SDS011;11281;52.194;21.006;2023-03-29T18:30:49;11.63;;;3.45;;
22223;SDS011;11281;52.194;21.006;2023-03-29T18:34:51;14.60;;;4.63;;
22223;SDS011;11281;52.194;21.006;2023-03-29T18:38:53;8.52;;;4.05;;
22223;SDS011;11281;52.194;21.006;2023-03-29T18:42:55;12.90;;;4.82;;
22223;SDS011;11281;52.194;21.006;2023-03-29T18:46:56;8.48;;;3.97;;
22223;SDS011;11281;52.194;21.006;2023-03-29T18:50:59;10.40;;;4.50;;
22223;SDS011;11281;52.194;21.006;2023-03-29T18:55:00;10.00;;;4.63;;
22223;SDS011;11281;52.194;21.006;2023-03-29T18:59:01;14.38;;;5.28;;
22223;SDS011;11281;52.194;21.006;2023-03-29T19:03:06;10.25;;;5.38;;
22223;SDS011;11281;52.194;21.006;2023-03-29T19:07:08;13.65;;;4.97;;
22223;SDS011;11281;52.194;21.006;2023-03-29T19:11:10;11.30;;;5.95;;
22223;SDS011;11281;52.194;21.006;2023-03-29T19:15:14;9.15;;;4.72;;
22223;SDS011;11281;52.194;21.006;2023-03-29T19:19:16;10.52;;;5.10;;
22223;SDS011;11281;52.194;21.006;2023-03-29T19:23:19;11.85;;;3.88;;
22223;SDS011;11281;52.194;21.006;2023-03-29T19:27:24;5.88;;;4.47;;
22223;SDS011;11281;52.194;21.006;2023-03-29T19:31:26;9.70;;;4.57;;
22223;SDS011;11281;52.194;21.006;2023-03-29T19:35:28;13.80;;;4.50;;
22223;SDS011;11281;52.194;21.006;2023-03-29T19:39:30;9.60;;;4.07;;
22223;SDS011;11281;52.194;21.006;2023-03-29T19:43:32;9.60;;;4.82;;
22223;SDS011;11281;52.194;21.006;2023-03-29T19:47:35;9.15;;;4.60;;
22223;SDS011;11281;52.194;21.006;2023-03-29T19:51:36;9.80;;;4.30;;
22223;SDS011;11281;52.194;21.006;2023-03-29T19:55:38;8.35;;;5.70;;
22223;SDS011;11281;52.194;21.006;2023-03-29T19:59:42;12.60;;;5.63;;
22223;SDS011;11281;52.194;21.006;2023-03-29T20:03:43;15.93;;;5.97;;
22223;SDS011;11281;52.194;21.006;2023-03-29T20:07:46;17.63;;;6.72;;
22223;SDS011;11281;52.194;21.006;2023-03-29T20:11:47;15.07;;;6.75;;
22223;SDS011;11281;52.194;21.006;2023-03-29T20:15:49;19.77;;;8.00;;
22223;SDS011;11281;52.194;21.006;2023-03-29T20:19:51;22.95;;;10.32;;
22223;SDS011;11281;52.194;21.006;2023-03-29T20:23:54;28.60;;;12.57;;
22223;SDS011;11281;52.194;21.006;2023-03-29T20:27:56;32.97;;;14.10;;
22223;SDS011;11281;52.194;21.006;2023-03-29T20:31:59;32.42;;;13.13;;
22223;SDS011;11281;52.194;21.006;2023-03-29T20:36:00;32.97;;;13.05;;
22223;SDS011;11281;52.194;21.006;2023-03-29T20:40:02;28.08;;;12.65;;
22223;SDS011;11281;52.194;21.006;2023-03-29T20:44:05;27.98;;;13.30;;
22223;SDS011;11281;52.194;21.006;2023-03-29T20:48:07;27.83;;;11.98;;
22223;SDS011;11281;52.194;21.006;2023-03-29T20:52:13;28.90;;;12.32;;
22223;SDS011;11281;52.194;21.006;2023-03-29T20:56:18;28.30;;;11.77;;
22223;SDS011;11281;52.194;21.006;2023-03-29T21:00:20;23.33;;;12.00;;
22223;SDS011;11281;52.194;21.006;2023-03-29T21:04:23;26.10;;;11.45;;
22223;SDS011;11281;52.194;21.006;2023-03-29T21:08:25;29.20;;;10.85;;
22223;SDS011;11281;52.194;21.006;2023-03-29T21:12:28;28.02;;;12.73;;
22223;SDS011;11281;52.194;21.006;2023-03-29T21:16:30;22.17;;;10.77;;
22223;SDS011;11281;52.194;21.006;2023-03-29T21:20:31;27.25;;;12.20;;
22223;SDS011;11281;52.194;21.006;2023-03-29T21:24:33;24.75;;;12.25;;
22223;SDS011;11281;52.194;21.006;2023-03-29T21:28:38;30.25;;;13.45;;
22223;SDS011;11281;52.194;21.006;2023-03-29T21:32:40;30.90;;;14.70;;
22223;SDS011;11281;52.194;21.006;2023-03-29T21:36:45;28.55;;;15.43;;
22223;SDS011;11281;52.194;21.006;2023-03-29T21:40:46;37.65;;;16.95;;
22223;SDS011;11281;52.194;21.006;2023-03-29T21:44:48;33.72;;;14.45;;
22223;SDS011;11281;52.194;21.006;2023-03-29T21:48:50;37.78;;;16.90;;
22223;SDS011;11281;52.194;21.006;2023-03-29T21:52:51;38.58;;;15.95;;
22223;SDS011;11281;52.194;21.006;2023-03-29T21:56:53;32.10;;;14.73;;
22223;SDS011;11281;52.194;21.006;2023-03-29T22:00:55;31.35;;;15.07;;
22223;SDS011;11281;52.194;21.006;2023-03-29T22:04:57;29.95;;;14.52;;
22223;SDS011;11281;52.194;21.006;2023-03-29T22:08:59;31.77;;;14.10;;
22223;SDS011;11281;52.194;21.006;2023-03-29T22:13:01;27.90;;;13.30;;
22223;SDS011;11281;52.194;21.006;2023-03-29T22:17:04;29.20;;;13.52;;
22223;SDS011;11281;52.194;21.006;2023-03-29T22:21:14;30.65;;;13.90;;
22223;SDS011;11281;52.194;21.006;2023-03-29T22:25:23;23.15;;;11.38;;
22223;SDS011;11281;52.194;21.006;2023-03-29T22:29:25;25.80;;;12.60;;
22223;SDS011;11281;52.194;21.006;2023-03-29T22:33:26;27.85;;;11.88;;
22223;SDS011;11281;52.194;21.006;2023-03-29T22:37:28;24.30;;;11.98;;
22223;SDS011;11281;52.194;21.006;2023-03-29T22:41:30;18.02;;;10.18;;
22223;SDS011;11281;52.194;21.006;2023-03-29T22:45:32;27.35;;;10.35;;
22223;SDS011;11281;52.194;21.006;2023-03-29T22:49:33;25.45;;;10.38;;
22223;SDS011;11281;52.194;21.006;2023-03-29T22:53:35;22.02;;;10.25;;
22223;SDS011;11281;52.194;21.006;2023-03-29T22:57:37;20.40;;;10.52;;
22223;SDS011;11281;52.194;21.006;2023-03-29T23:01:39;22.17;;;10.02;;
22223;SDS011;11281;52.194;21.006;2023-03-29T23:05:47;24.63;;;10.60;;
22223;SDS011;11281;52.194;21.006;2023-03-29T23:09:54;20.63;;;10.32;;
22223;SDS011;11281;52.194;21.006;2023-03-29T23:13:56;17.48;;;9.07;;
22223;SDS011;11281;52.194;21.006;2023-03-29T23:17:58;21.25;;;10.05;;
22223;SDS011;11281;52.194;21.006;2023-03-29T23:22:00;21.20;;;10.85;;
22223;SDS011;11281;52.194;21.006;2023-03-29T23:26:02;18.98;;;10.05;;
22223;SDS011;11281;52.194;21.006;2023-03-29T23:30:04;18.60;;;10.65;;
22223;SDS011;11281;52.194;21.006;2023-03-29T23:34:08;19.85;;;10.30;;
22223;SDS011;11281;52.194;21.006;2023-03-29T23:38:10;17.77;;;10.48;;
22223;SDS011;11281;52.194;21.006;2023-03-29T23:42:12;18.80;;;10.80;;
22223;SDS011;11281;52.194;21.006;2023-03-29T23:46:14;21.95;;;9.85;;
22223;SDS011;11281;52.194;21.006;2023-03-29T23:50:18;20.63;;;9.57;;
22223;SDS011;11281;52.194;21.006;2023-03-29T23:54:22;23.65;;;9.95;;
22223;SDS011;11281;52.194;21.006;2023-03-29T23:58:23;22.38;;;9.77;;
